Details From KHOU - William P Hobby
To KELP - El Paso Intl
Flight Number -
Tags generated
Created
Modified
Stats Distance 590 nm / 1,092 km
Max Altitude 34,000 ft / 10,363 m
Waypoints 8
Social Downloads 2
Likes 0
Share VATSIM

Download

Looking for another format? Having issues loading an existing format? Contact us
Advertisement - Login to hide

Notes

Basic altitude profile: - Ascent Rate: 2500ft/min - Ascent Speed: 250kts - Cruise Altitude: 35000ft - Cruise Speed: 420kts - Descent Rate: 1500ft/min - Descent Speed: 250kts

Route

KHOU PUFER J86 JCT J2 FIGMO KELP

ID Type Via Altitude Latitude Longitude Leg Dist Tot Dist Heading (true) Name
O KHOU APT - 0 ft / 0 m 29.64553˚ -95.27911˚ - 0 nm - William P Hobby
PUFER FIX - 34,000 ft / 10,363 m 30.22402˚ -97.07558˚ 99 nm 99 nm 291° / 290° -
SPURS FIX J86 (AWY-HI) 34,000 ft / 10,363 m 30.40529˚ -98.34960˚ 66 nm 166 nm 280° / 279° -
JCT VOR J86 (AWY-HI) 34,000 ft / 10,363 m 30.59803˚ -99.81747˚ 76 nm 243 nm 279° / 278° JUNCTION VORTAC
KEMPL FIX J2 (AWY-HI) 34,000 ft / 10,363 m 30.72034˚ -100.83180˚ 52 nm 296 nm 278° / 278° -
FST DME J2 (AWY-HI) 34,000 ft / 10,363 m 30.95211˚ -102.97571˚ 111 nm 407 nm 278° / 277° FORT STOCKTON VORTAC
FIGMO FIX J2 (AWY-HI) 18,000 ft / 5,486 m 31.59077˚ -105.38187˚ 129 nm 537 nm 288° / 287° -
O KELP APT - 0 ft / 0 m 31.80653˚ -106.37458˚ 52 nm 589 nm 285° / 284° El Paso Intl

Altitude Profile

Advertisement - Login to hide

Weather


0- 5 10 15 20 25 30 35+ Temperature / ° C

Clouds and Precipitation
Forecast for 2017-12-11 00:00 UTC. Updated an hour ago

Ground ~20,000 ft ~40,000 ft Winds

KHOU

Details ICAO KHOU (HOU)
Name William P Hobby
Region United States
Timezone America/Chicago (UTC-6.0)
Stats Elevation 45 ft / 14 m (AMSL)
Location 29.645532° -95.279111°
Runways 4
Magnetic Variation 2.440° E

METAR

KHOU 102353Z 29003KT 10SM SCT250 14/01 A3036 RMK AO2 SLP286 T01390006 10178 20133 56003

Decode

TAF

TAF KHOU 102320Z 1100/1124 25007KT P6SM BKN250= TAF KUTS 102320Z 1100/1124 VRB04KT P6SM SCT250

Decode

Departure Runways

ID Width Length Bearing (true) Bearing (mag) Surface Threshold Offset Overrun Length
04 151 ft / 46 m 7,609 ft / 2,319 m 43.80° 41.36° Concrete 0 ft / 0 m 197 ft / 60 m
12L 98 ft / 30 m 5,152 ft / 1,570 m 134.09° 131.65° Concrete 0 ft / 0 m 148 ft / 45 m
12R 151 ft / 46 m 7,608 ft / 2,319 m 134.10° 131.66° Asphalt 1,033 ft / 315 m 148 ft / 45 m
17 151 ft / 46 m 6,020 ft / 1,835 m 178.95° 176.51° Asphalt 0 ft / 0 m 197 ft / 60 m
22 151 ft / 46 m 7,609 ft / 2,319 m 223.81° 221.37° Concrete 0 ft / 0 m 197 ft / 60 m
30L 151 ft / 46 m 7,608 ft / 2,319 m 314.11° 311.67° Asphalt 0 ft / 0 m 148 ft / 45 m
30R 98 ft / 30 m 5,152 ft / 1,570 m 314.10° 311.66° Concrete 0 ft / 0 m 148 ft / 45 m
35 151 ft / 46 m 6,020 ft / 1,835 m 358.95° 356.51° Asphalt 0 ft / 0 m 197 ft / 60 m

KELP

Details ICAO KELP (ELP)
Name El Paso Intl
Region United States
Timezone America/Denver (UTC-7.0)
Stats Elevation 3,958 ft / 1,206 m (AMSL)
Location 31.806535° -106.374581°
Runways 3
Magnetic Variation 8.110° E

METAR

KELP 102351Z 01004KT 10SM BKN250 12/M04 A3040 RMK AO2 SLP279 T01221039 10150 20089 56006

Decode

TAF

KELP 102336Z 1100/1124 02007KT P6SM SCT140 BKN250

Decode

Destination Runways

ID Width Length Bearing (true) Bearing (mag) Surface Threshold Offset Overrun Length
04 150 ft / 46 m 12,021 ft / 3,664 m 49.85° 41.74° Asphalt 0 ft / 0 m 1,000 ft / 305 m
08L 75 ft / 23 m 5,482 ft / 1,671 m 88.32° 80.21° Asphalt 0 ft / 0 m 0 ft / 0 m
08R 150 ft / 46 m 9,007 ft / 2,746 m 93.32° 85.21° Asphalt 0 ft / 0 m 3,100 ft / 945 m
22 150 ft / 46 m 12,021 ft / 3,664 m 229.87° 221.76° Asphalt 0 ft / 0 m 0 ft / 0 m
26L 150 ft / 46 m 9,007 ft / 2,746 m 273.34° 265.23° Asphalt 0 ft / 0 m 0 ft / 0 m
26R 75 ft / 23 m 5,482 ft / 1,671 m 268.33° 260.22° Asphalt 0 ft / 0 m 0 ft / 0 m

Approach Navaids

Runway Type Ident Frequency Range Bearing (true) Bearing (mag) Slope Elevation
04 Localiser IETF 111.50 MHz 18 nm / 33 km 49.87° 41.76° - 3,950 ft / 1,204 m (AMSL)
04 DME IETF 111.50 MHz 18 nm / 33 km - - - 3,926 ft / 1,197 m (AMSL)
22 Localiser IELP 111.50 MHz 18 nm / 33 km 229.85° 221.74° - 3,911 ft / 1,192 m (AMSL)
22 Glidescope IELP 111.50 MHz 10 nm / 19 km 229.86° 221.75° 3.00° 3,940 ft / 1,201 m (AMSL)
22 DME IELP 111.50 MHz 18 nm / 33 km - - - 3,926 ft / 1,197 m (AMSL)

Popular Alternatives